createdAt,value
2019-05-21T00:00:39.961Z,31.70
2019-05-21T00:03:34.008Z,31.20
2019-05-21T00:06:28.441Z,31.10
2019-05-21T00:09:22.100Z,30.90
2019-05-21T00:12:16.521Z,31.00
2019-05-21T00:15:12.895Z,31.00
2019-05-21T00:18:05.537Z,31.00
2019-05-21T00:20:59.333Z,31.40
2019-05-21T00:23:53.215Z,31.60
2019-05-21T00:26:46.332Z,32.10
2019-05-21T00:29:57.001Z,32.10
2019-05-21T00:33:08.235Z,32.20
2019-05-21T00:36:19.857Z,32.20
2019-05-21T00:39:31.825Z,32.10
2019-05-21T00:42:34.967Z,32.40
2019-05-21T00:45:29.951Z,32.60
2019-05-21T00:48:24.586Z,32.90
2019-05-21T00:51:18.971Z,32.90
2019-05-21T00:54:12.946Z,32.80
2019-05-21T00:57:07.067Z,32.90
2019-05-21T01:00:01.029Z,33.20
2019-05-21T01:02:53.652Z,33.90
2019-05-21T01:05:47.583Z,34.30
2019-05-21T01:08:42.549Z,34.30
2019-05-21T01:11:35.799Z,35.60
2019-05-21T01:14:29.110Z,36.90
2019-05-21T01:17:25.014Z,38.00
2019-05-21T01:20:17.964Z,38.50
2019-05-21T01:23:10.832Z,39.50
2019-05-21T01:26:04.155Z,38.80
2019-05-21T01:28:56.857Z,39.60
2019-05-21T01:31:51.263Z,40.00
2019-05-21T01:34:44.232Z,39.80
2019-05-21T01:37:37.270Z,39.80
2019-05-21T01:40:29.585Z,40.10
2019-05-21T01:43:22.614Z,40.00
2019-05-21T01:46:15.004Z,39.80
2019-05-21T01:49:08.768Z,39.60
2019-05-21T01:52:01.144Z,39.60
2019-05-21T01:54:55.302Z,39.80
2019-05-21T01:57:48.066Z,39.40
2019-05-21T02:00:40.449Z,39.30
2019-05-21T02:03:32.761Z,39.30
2019-05-21T02:06:25.636Z,39.20
2019-05-21T02:09:18.080Z,39.20
2019-05-21T02:12:11.036Z,39.20
2019-05-21T02:15:04.123Z,39.00
2019-05-21T02:17:57.394Z,39.10
2019-05-21T02:20:50.024Z,39.20
2019-05-21T02:23:57.882Z,39.10
2019-05-21T02:26:51.817Z,38.80
2019-05-21T02:29:44.702Z,39.60
2019-05-21T02:32:37.039Z,39.50
2019-05-21T02:35:31.582Z,39.70
2019-05-21T02:38:24.288Z,39.50
2019-05-21T02:41:17.849Z,39.30
2019-05-21T02:44:10.442Z,39.40
2019-05-21T02:47:03.481Z,39.40
2019-05-21T02:49:56.782Z,39.50
2019-05-21T02:52:49.840Z,39.70
2019-05-21T02:55:44.562Z,39.60
2019-05-21T02:58:37.303Z,39.50
2019-05-21T03:01:39.664Z,39.30
2019-05-21T03:04:33.125Z,39.30
2019-05-21T03:07:26.279Z,40.00
2019-05-21T03:10:19.636Z,39.50
2019-05-21T03:13:12.444Z,39.80
2019-05-21T03:16:05.034Z,39.90
2019-05-21T03:18:58.429Z,39.60
2019-05-21T03:21:51.235Z,39.80
2019-05-21T03:24:45.612Z,39.80
2019-05-21T03:27:40.275Z,39.60
2019-05-21T03:30:34.417Z,39.50
2019-05-21T03:33:28.822Z,39.60
2019-05-21T03:36:33.362Z,39.80
2019-05-21T03:39:20.405Z,39.60
2019-05-21T03:42:13.662Z,39.20
2019-05-21T03:45:08.193Z,39.40
2019-05-21T03:48:03.376Z,39.60
2019-05-21T03:50:57.737Z,39.50
2019-05-21T03:53:53.838Z,39.40
2019-05-21T03:56:48.178Z,39.00
2019-05-21T03:59:42.072Z,38.80
2019-05-21T04:02:36.721Z,38.60
2019-05-21T04:05:30.937Z,38.50
2019-05-21T04:08:24.900Z,38.20
2019-05-21T04:11:19.533Z,40.10
2019-05-21T04:14:14.229Z,43.00
2019-05-21T04:17:16.581Z,41.60
2019-05-21T04:20:10.272Z,40.50
2019-05-21T04:23:04.024Z,39.90
2019-05-21T04:25:57.877Z,39.40
2019-05-21T04:28:52.258Z,39.00
2019-05-21T04:31:45.321Z,38.60
2019-05-21T04:34:38.523Z,38.30
2019-05-21T04:37:32.607Z,38.10
2019-05-21T04:40:26.029Z,38.10
2019-05-21T04:43:20.277Z,38.00
2019-05-21T04:46:15.557Z,37.90
2019-05-21T04:49:08.727Z,37.80
2019-05-21T04:52:03.791Z,37.80
2019-05-21T04:54:57.099Z,37.80
2019-05-21T04:57:58.763Z,37.70
2019-05-21T05:00:54.911Z,37.60
2019-05-21T05:04:06.739Z,37.60
2019-05-21T05:07:27.643Z,37.60
2019-05-21T05:10:28.247Z,37.60
2019-05-21T05:13:31.295Z,37.60
2019-05-21T05:23:31.164Z,37.60
2019-05-21T05:26:30.411Z,37.70
2019-05-21T05:29:27.307Z,37.80
2019-05-21T05:32:19.678Z,37.80
2019-05-21T05:35:21.880Z,37.80
2019-05-21T05:38:21.501Z,37.80
2019-05-21T05:41:19.880Z,37.80
2019-05-21T05:44:15.089Z,37.80
2019-05-21T05:47:10.558Z,37.70
2019-05-21T05:50:05.704Z,37.80
2019-05-21T05:53:00.392Z,37.70
2019-05-21T05:55:56.616Z,37.70
2019-05-21T05:58:57.569Z,37.80
2019-05-21T06:01:57.216Z,37.60
2019-05-21T06:04:51.697Z,37.60
2019-05-21T06:07:58.698Z,37.70
2019-05-21T06:10:46.327Z,37.60
2019-05-21T06:13:43.835Z,37.60
2019-05-21T06:16:42.238Z,37.60
2019-05-21T06:19:38.537Z,37.60
2019-05-21T06:22:33.010Z,37.50
2019-05-21T06:25:26.766Z,37.60
2019-05-21T06:28:20.852Z,37.40
2019-05-21T06:31:13.679Z,37.50
2019-05-21T06:34:07.927Z,37.30
2019-05-21T06:37:07.647Z,37.40
2019-05-21T06:40:05.341Z,37.60
2019-05-21T06:43:00.100Z,37.40
2019-05-21T06:45:53.203Z,37.50
2019-05-21T06:48:48.324Z,37.40
2019-05-21T06:51:43.283Z,37.30
2019-05-21T06:54:40.588Z,37.50
2019-05-21T06:57:33.690Z,37.60
2019-05-21T07:00:26.654Z,38.10
2019-05-21T07:03:21.832Z,37.40
2019-05-21T07:06:22.398Z,37.60
2019-05-21T07:09:26.279Z,37.50
2019-05-21T07:15:49.985Z,37.60
2019-05-21T07:19:06.641Z,37.50
2019-05-21T07:22:12.553Z,37.70
2019-05-21T07:25:02.866Z,38.10
2019-05-21T07:27:59.542Z,37.30
2019-05-21T07:30:57.545Z,37.60
2019-05-21T07:33:54.989Z,37.40
2019-05-21T07:36:50.840Z,37.20
2019-05-21T07:39:47.571Z,37.30
2019-05-21T07:42:59.466Z,37.10
2019-05-21T07:46:07.435Z,37.00
2019-05-21T07:49:10.923Z,37.10
2019-05-21T07:52:06.129Z,37.00
2019-05-21T07:55:07.736Z,37.00
2019-05-21T07:58:01.287Z,37.00
2019-05-21T08:00:54.025Z,36.90
2019-05-21T08:03:58.998Z,36.80
2019-05-21T08:06:53.563Z,36.70
2019-05-21T08:09:49.638Z,36.60
2019-05-21T08:12:43.570Z,36.70
2019-05-21T08:15:38.433Z,36.60
2019-05-21T08:18:31.657Z,36.60
2019-05-21T08:21:27.160Z,36.60
2019-05-21T08:24:22.208Z,36.20
2019-05-21T08:27:19.123Z,36.30
2019-05-21T08:30:11.940Z,36.40
2019-05-21T08:33:15.861Z,35.60
2019-05-21T08:36:09.462Z,36.00
2019-05-21T08:39:03.337Z,36.20
2019-05-21T08:42:00.305Z,36.10
2019-05-21T08:44:54.476Z,36.10
2019-05-21T08:47:48.352Z,36.20
2019-05-21T08:50:43.659Z,36.20
2019-05-21T08:53:40.496Z,36.20
2019-05-21T08:56:34.177Z,36.40
2019-05-21T08:59:28.893Z,36.30
2019-05-21T09:02:30.440Z,37.10
2019-05-21T09:05:21.958Z,38.50
2019-05-21T09:08:32.781Z,38.30
2019-05-21T09:11:33.067Z,38.60
2019-05-21T09:32:58.464Z,38.70
2019-05-21T09:43:59.506Z,38.50
2019-05-21T09:47:00.149Z,38.50
2019-05-21T09:49:57.006Z,38.60
2019-05-21T09:52:58.574Z,38.50
2019-05-21T09:55:54.052Z,38.50
2019-05-21T09:58:51.465Z,38.50
2019-05-21T10:01:49.530Z,38.40
2019-05-21T10:04:44.374Z,38.30
2019-05-21T10:07:40.629Z,38.30
2019-05-21T10:10:35.522Z,38.50
2019-05-21T10:13:31.922Z,38.60
2019-05-21T10:16:27.784Z,38.60
2019-05-21T10:19:23.457Z,38.60
2019-05-21T10:22:19.886Z,38.50
2019-05-21T10:25:20.659Z,38.40
2019-05-21T10:28:18.645Z,38.50
2019-05-21T10:31:13.237Z,38.40
2019-05-21T10:34:06.240Z,38.40
2019-05-21T10:36:59.263Z,38.50
2019-05-21T10:39:54.089Z,38.60
2019-05-21T10:42:50.918Z,38.60
2019-05-21T10:45:48.510Z,38.50
2019-05-21T10:48:51.595Z,38.40
2019-05-21T10:51:46.509Z,38.10
2019-05-21T10:54:44.304Z,38.20
2019-05-21T10:57:38.760Z,38.50
2019-05-21T11:00:40.429Z,38.50
2019-05-21T11:03:54.515Z,38.60
2019-05-21T11:07:02.478Z,38.50
2019-05-21T11:09:56.983Z,38.50
2019-05-21T11:12:53.852Z,38.30
2019-05-21T11:15:51.567Z,38.50
2019-05-21T11:18:48.524Z,38.40
2019-05-21T11:21:44.397Z,38.10
2019-05-21T11:24:40.179Z,38.40
2019-05-21T11:27:37.306Z,38.30
2019-05-21T11:30:34.185Z,38.10
2019-05-21T11:33:38.838Z,38.20
2019-05-21T11:36:36.612Z,38.00
2019-05-21T11:39:31.621Z,38.00
2019-05-21T11:42:26.257Z,38.00
2019-05-21T11:45:31.530Z,38.10
2019-05-21T11:48:14.853Z,38.10
2019-05-21T11:51:14.018Z,38.10
2019-05-21T11:54:10.770Z,38.00
2019-05-21T11:57:12.352Z,38.30
2019-05-21T12:00:10.441Z,38.10
2019-05-21T12:03:06.281Z,38.00
2019-05-21T12:06:05.140Z,38.00
2019-05-21T12:09:02.286Z,37.90
2019-05-21T12:12:02.552Z,37.90
2019-05-21T12:14:59.225Z,37.80
2019-05-21T12:17:53.650Z,37.70
2019-05-21T12:20:49.434Z,37.70
2019-05-21T12:23:44.089Z,37.80
2019-05-21T12:26:47.829Z,37.80
2019-05-21T12:29:41.280Z,37.60
2019-05-21T12:32:37.972Z,37.70
2019-05-21T12:35:34.690Z,38.10
2019-05-21T12:38:28.863Z,37.60
2019-05-21T12:41:23.816Z,37.60
2019-05-21T12:44:21.711Z,37.80
2019-05-21T12:47:16.196Z,38.10
2019-05-21T12:50:10.859Z,38.30
2019-05-21T12:53:04.083Z,39.10
2019-05-21T12:55:58.673Z,39.10
2019-05-21T12:58:52.351Z,39.20
2019-05-21T13:01:45.986Z,39.30
2019-05-21T13:04:39.246Z,39.20
2019-05-21T13:07:33.856Z,39.20
2019-05-21T13:10:28.061Z,39.30
2019-05-21T13:13:36.019Z,39.80
2019-05-21T13:16:30.990Z,40.70
2019-05-21T13:19:25.103Z,41.60
2019-05-21T13:22:18.419Z,41.30
2019-05-21T13:25:17.946Z,41.30
2019-05-21T13:28:56.183Z,41.00
2019-05-21T13:35:43.996Z,41.20
2019-05-21T13:38:36.328Z,41.30
2019-05-21T13:41:29.902Z,41.20
2019-05-21T13:44:23.140Z,41.10
2019-05-21T13:47:17.335Z,41.20
2019-05-21T13:50:10.402Z,41.10
2019-05-21T13:53:03.546Z,41.20
2019-05-21T13:55:56.631Z,41.30
2019-05-21T13:58:50.534Z,40.80
2019-05-21T14:01:43.804Z,40.70
2019-05-21T14:04:40.109Z,40.70
2019-05-21T14:07:33.410Z,40.80
2019-05-21T14:10:25.846Z,40.80
2019-05-21T14:13:19.127Z,40.80
2019-05-21T14:16:12.126Z,40.90
2019-05-21T14:19:05.142Z,41.10
2019-05-21T14:21:58.567Z,41.00
2019-05-21T14:24:52.867Z,41.20
2019-05-21T14:27:46.074Z,41.20
2019-05-21T14:30:39.108Z,41.30
2019-05-21T14:33:32.072Z,41.10
2019-05-21T14:36:26.768Z,41.60
2019-05-21T14:39:20.592Z,41.50
2019-05-21T14:42:15.418Z,41.40
2019-05-21T14:45:09.120Z,41.30
2019-05-21T14:48:01.826Z,41.40
2019-05-21T14:50:55.245Z,41.40
2019-05-21T14:53:48.323Z,41.60
2019-05-21T14:56:41.302Z,41.70
2019-05-21T14:59:34.483Z,41.70
2019-05-21T15:02:28.995Z,41.40
2019-05-21T15:05:21.911Z,41.60
2019-05-21T15:08:15.377Z,41.60
2019-05-21T15:11:07.789Z,41.60
2019-05-21T15:14:00.198Z,41.70
2019-05-21T15:16:53.206Z,41.70
2019-05-21T15:19:47.662Z,41.50
2019-05-21T15:22:40.983Z,41.70
2019-05-21T15:25:33.689Z,41.70
2019-05-21T15:28:28.961Z,42.60
2019-05-21T15:31:22.263Z,42.00
2019-05-21T15:34:15.082Z,42.20
2019-05-21T15:37:07.827Z,42.20
2019-05-21T15:40:02.303Z,42.20
2019-05-21T15:42:55.556Z,42.20
2019-05-21T15:45:48.089Z,42.00
2019-05-21T15:48:40.991Z,42.00
2019-05-21T15:51:33.678Z,42.40
2019-05-21T15:54:26.456Z,42.40
2019-05-21T15:57:19.313Z,42.00
2019-05-21T16:00:13.748Z,42.00
2019-05-21T16:03:07.657Z,41.80
2019-05-21T16:06:00.790Z,41.70
2019-05-21T16:08:55.397Z,41.60
2019-05-21T16:11:48.375Z,41.70
2019-05-21T16:14:41.280Z,41.50
2019-05-21T16:17:33.704Z,41.80
2019-05-21T16:20:27.712Z,41.70
2019-05-21T16:23:22.559Z,41.60
2019-05-21T16:26:16.854Z,41.60
2019-05-21T16:29:09.594Z,41.50
2019-05-21T16:32:02.515Z,41.50
2019-05-21T16:34:55.261Z,41.60
2019-05-21T16:37:49.119Z,41.40
2019-05-21T16:40:41.603Z,41.50
2019-05-21T16:43:34.557Z,41.60
2019-05-21T16:46:27.118Z,41.50
2019-05-21T16:49:20.145Z,41.50
2019-05-21T16:52:12.820Z,41.60
2019-05-21T16:55:06.261Z,41.50
2019-05-21T16:57:59.407Z,41.70
2019-05-21T17:00:52.259Z,41.70
2019-05-21T17:03:58.852Z,41.60
2019-05-21T17:06:38.196Z,41.80
2019-05-21T17:09:32.501Z,41.80
2019-05-21T17:12:24.806Z,41.90
2019-05-21T17:15:17.958Z,42.00
2019-05-21T17:18:10.954Z,41.80
2019-05-21T17:21:03.259Z,42.10
2019-05-21T17:23:56.296Z,41.90
2019-05-21T17:26:49.211Z,42.00
2019-05-21T17:29:41.794Z,41.30
2019-05-21T17:32:33.966Z,41.90
2019-05-21T17:35:27.582Z,41.90
2019-05-21T17:38:20.109Z,42.10
2019-05-21T17:41:12.783Z,42.00
2019-05-21T17:44:05.318Z,41.90
2019-05-21T17:46:59.279Z,41.80
2019-05-21T17:49:51.981Z,42.10
2019-05-21T17:52:44.914Z,41.90
2019-05-21T17:55:37.603Z,41.80
2019-05-21T17:58:29.908Z,41.20
2019-05-21T18:01:24.233Z,40.40
2019-05-21T18:04:17.717Z,39.80
2019-05-21T18:07:13.229Z,39.30
2019-05-21T18:10:06.146Z,38.90
2019-05-21T18:12:58.748Z,38.10
2019-05-21T18:15:52.981Z,37.50
2019-05-21T18:18:46.098Z,37.10
2019-05-21T18:21:38.781Z,37.00
2019-05-21T18:24:32.375Z,36.40
2019-05-21T18:27:27.529Z,36.00
2019-05-21T18:30:20.372Z,35.80
2019-05-21T18:33:13.427Z,35.90
2019-05-21T18:36:05.578Z,35.50
2019-05-21T18:38:57.629Z,35.40
2019-05-21T18:41:49.843Z,35.30
2019-05-21T18:44:42.142Z,35.20
2019-05-21T18:47:34.094Z,35.30
2019-05-21T18:50:35.527Z,35.20
2019-05-21T18:53:20.190Z,35.00
2019-05-21T18:56:13.936Z,35.10
2019-05-21T18:59:06.918Z,35.20
2019-05-21T19:01:59.272Z,35.10
2019-05-21T19:04:51.537Z,35.00
2019-05-21T19:07:44.494Z,35.00
2019-05-21T19:10:36.952Z,35.00
2019-05-21T19:13:31.405Z,34.90
2019-05-21T19:16:23.948Z,34.80
2019-05-21T19:19:17.271Z,34.80
2019-05-21T19:22:12.001Z,34.70
2019-05-21T19:25:04.445Z,34.70
2019-05-21T19:27:56.829Z,34.70
2019-05-21T19:30:49.304Z,34.60
2019-05-21T19:33:41.890Z,34.60
2019-05-21T19:36:34.198Z,34.80
2019-05-21T19:39:26.159Z,34.60
2019-05-21T19:42:18.616Z,34.60
2019-05-21T19:45:11.037Z,34.60
2019-05-21T19:48:03.449Z,34.40
2019-05-21T19:50:55.362Z,34.50
2019-05-21T19:53:47.674Z,34.40
2019-05-21T19:56:39.699Z,34.30
2019-05-21T19:59:32.584Z,34.00
2019-05-21T20:02:25.363Z,34.00
2019-05-21T20:05:17.935Z,33.90
2019-05-21T20:08:10.233Z,33.80
2019-05-21T20:11:02.475Z,33.60
2019-05-21T20:13:54.727Z,33.80
2019-05-21T20:16:46.895Z,33.70
2019-05-21T20:19:39.305Z,33.80
2019-05-21T20:22:32.926Z,33.70
2019-05-21T20:25:26.687Z,33.70
2019-05-21T20:28:18.730Z,33.80
2019-05-21T20:31:11.235Z,33.60
2019-05-21T20:34:03.894Z,33.80
2019-05-21T20:36:56.486Z,33.60
2019-05-21T20:39:51.391Z,33.70
2019-05-21T20:42:43.906Z,33.70
2019-05-21T20:45:37.202Z,34.00
2019-05-21T20:48:33.460Z,33.90
2019-05-21T20:51:26.140Z,33.70
2019-05-21T20:54:19.797Z,33.70
2019-05-21T20:57:12.802Z,33.80
2019-05-21T21:00:05.136Z,34.00
2019-05-21T21:02:59.003Z,34.10
2019-05-21T21:05:50.974Z,34.20
2019-05-21T21:08:43.617Z,34.30
2019-05-21T21:11:35.814Z,34.30
2019-05-21T21:14:29.458Z,34.50
2019-05-21T21:17:21.831Z,34.40
2019-05-21T21:20:14.280Z,34.30
2019-05-21T21:23:06.607Z,34.50
2019-05-21T21:25:59.111Z,34.60
2019-05-21T21:28:51.184Z,34.40
2019-05-21T21:31:43.442Z,34.60
2019-05-21T21:34:36.038Z,34.50
2019-05-21T21:37:28.637Z,34.50
2019-05-21T21:40:22.546Z,34.70
2019-05-21T21:43:14.958Z,34.70
2019-05-21T21:46:08.385Z,34.80
2019-05-21T21:49:00.926Z,34.60
2019-05-21T21:51:53.311Z,34.40
2019-05-21T21:54:45.567Z,34.40
2019-05-21T21:57:37.580Z,34.70
2019-05-21T22:01:21.330Z,34.70
2019-05-21T22:04:14.119Z,34.70
2019-05-21T22:07:06.929Z,34.80
2019-05-21T22:09:59.574Z,34.60
2019-05-21T22:12:51.798Z,34.80
2019-05-21T22:15:47.843Z,34.70
2019-05-21T22:18:41.753Z,34.70
2019-05-21T22:21:35.099Z,34.70
2019-05-21T22:24:27.247Z,34.90
2019-05-21T22:27:19.508Z,35.50
2019-05-21T22:30:13.160Z,34.80
2019-05-21T22:33:05.102Z,35.00
2019-05-21T22:35:57.216Z,35.10
2019-05-21T22:38:49.514Z,35.00
2019-05-21T22:41:41.464Z,34.80
2019-05-21T22:44:35.358Z,34.90
2019-05-21T22:47:27.479Z,34.80
2019-05-21T22:50:19.748Z,34.90
2019-05-21T22:53:12.018Z,34.80
2019-05-21T22:56:04.113Z,34.70
2019-05-21T22:58:56.104Z,34.80
2019-05-21T23:01:49.965Z,34.60
2019-05-21T23:04:42.064Z,34.70
2019-05-21T23:07:35.976Z,34.80
2019-05-21T23:10:28.720Z,34.80
2019-05-21T23:13:21.082Z,34.80
2019-05-21T23:16:13.518Z,35.00
2019-05-21T23:19:10.986Z,34.80
2019-05-21T23:22:06.567Z,34.90
2019-05-21T23:24:58.854Z,34.90
2019-05-21T23:27:51.571Z,34.80
2019-05-21T23:30:45.139Z,34.60
2019-05-21T23:33:38.493Z,34.70
2019-05-21T23:36:31.725Z,35.00
2019-05-21T23:39:27.124Z,34.80
2019-05-21T23:42:28.998Z,34.90
2019-05-21T23:45:14.157Z,34.70
2019-05-21T23:48:09.503Z,34.60
2019-05-21T23:51:03.319Z,34.50
2019-05-21T23:53:56.940Z,34.50
2019-05-21T23:56:51.120Z,34.40
2019-05-21T23:59:44.714Z,34.60
